createdAt,value
2024-02-13T00:00:21.058Z,3.38
2024-02-13T00:02:47.099Z,3.34
2024-02-13T00:05:13.157Z,3.35
2024-02-13T00:07:39.175Z,3.37
2024-02-13T00:10:08.428Z,3.35
2024-02-13T00:12:34.505Z,3.35
2024-02-13T00:15:00.763Z,3.34
2024-02-13T00:17:26.833Z,3.36
2024-02-13T00:19:53.000Z,3.37
2024-02-13T00:22:19.333Z,3.39
2024-02-13T00:24:45.529Z,3.37
2024-02-13T00:27:12.258Z,3.43
2024-02-13T00:29:38.314Z,3.38
2024-02-13T00:32:05.201Z,3.33
2024-02-13T00:34:31.536Z,3.34
2024-02-13T00:36:58.499Z,3.32
2024-02-13T00:39:24.659Z,3.37
2024-02-13T00:41:50.657Z,3.35
2024-02-13T00:44:17.461Z,3.34
2024-02-13T00:46:43.366Z,3.35
2024-02-13T00:49:09.526Z,3.33
2024-02-13T00:51:35.531Z,3.32
2024-02-13T00:54:01.507Z,3.35
2024-02-13T00:56:27.480Z,3.40
2024-02-13T00:59:02.123Z,3.33
2024-02-13T01:01:29.049Z,3.35
2024-02-13T01:03:55.004Z,3.37
2024-02-13T01:06:20.993Z,3.40
2024-02-13T01:08:47.089Z,3.38
2024-02-13T01:11:13.200Z,3.34
2024-02-13T01:13:39.109Z,3.35
2024-02-13T01:16:05.442Z,3.33
2024-02-13T01:18:32.127Z,3.32
2024-02-13T01:20:58.249Z,3.38
2024-02-13T01:23:24.302Z,3.45
2024-02-13T01:25:50.211Z,3.42
2024-02-13T01:28:16.306Z,3.45
2024-02-13T01:30:42.486Z,3.47
2024-02-13T01:33:09.523Z,3.43
2024-02-13T01:35:36.305Z,3.51
2024-02-13T01:38:02.400Z,3.50
2024-02-13T01:40:28.331Z,3.52
2024-02-13T01:42:54.249Z,3.61
2024-02-13T01:45:20.254Z,3.65
2024-02-13T01:47:46.529Z,3.65
2024-02-13T01:50:14.598Z,3.72
2024-02-13T01:52:42.341Z,3.72
2024-02-13T01:55:10.865Z,3.66
2024-02-13T01:57:37.262Z,3.72
2024-02-13T02:00:04.063Z,3.74
2024-02-13T02:02:38.649Z,3.71
2024-02-13T02:05:05.767Z,3.77
2024-02-13T02:07:31.904Z,3.73
2024-02-13T02:09:58.569Z,3.80
2024-02-13T02:12:24.513Z,3.81
2024-02-13T02:14:50.653Z,3.77
2024-02-13T02:17:16.712Z,3.78
2024-02-13T02:19:42.864Z,3.83
2024-02-13T02:22:08.935Z,3.82
2024-02-13T02:24:34.942Z,3.85
2024-02-13T02:27:01.818Z,3.85
2024-02-13T02:29:27.842Z,3.82
2024-02-13T02:31:53.786Z,3.88
2024-02-13T02:34:19.922Z,3.91
2024-02-13T02:36:45.875Z,3.91
2024-02-13T02:39:11.828Z,3.94
2024-02-13T02:41:37.818Z,3.95
2024-02-13T02:44:04.723Z,3.95
2024-02-13T02:46:30.629Z,3.97
2024-02-13T02:48:56.760Z,4.00
2024-02-13T02:51:22.815Z,4.01
2024-02-13T02:53:48.932Z,4.04
2024-02-13T02:56:15.030Z,4.02
2024-02-13T02:58:42.274Z,4.01
2024-02-13T03:01:09.096Z,4.02
2024-02-13T03:03:35.424Z,3.99
2024-02-13T03:06:01.680Z,3.96
2024-02-13T03:08:28.397Z,3.96
2024-02-13T03:10:54.362Z,3.96
2024-02-13T03:13:20.391Z,3.93
2024-02-13T03:15:46.497Z,3.96
2024-02-13T03:18:16.230Z,3.98
2024-02-13T03:20:42.451Z,3.96
2024-02-13T03:23:08.471Z,3.99
2024-02-13T03:25:34.529Z,4.02
2024-02-13T03:28:00.591Z,4.00
2024-02-13T03:30:26.722Z,4.03
2024-02-13T03:32:52.869Z,4.04
2024-02-13T03:35:19.514Z,4.06
2024-02-13T03:37:45.472Z,4.07
2024-02-13T03:40:12.625Z,4.06
2024-02-13T03:42:38.576Z,4.07
2024-02-13T03:45:05.169Z,4.10
2024-02-13T03:47:31.332Z,4.08
2024-02-13T03:49:57.448Z,4.07
2024-02-13T03:52:24.061Z,4.11
2024-02-13T03:54:50.090Z,4.09
2024-02-13T03:57:15.953Z,4.05
2024-02-13T03:59:42.076Z,4.05
2024-02-13T04:02:08.090Z,4.08
2024-02-13T04:04:34.106Z,4.05
2024-02-13T04:07:00.135Z,4.00
2024-02-13T04:09:26.731Z,4.01
2024-02-13T04:11:52.693Z,3.97
2024-02-13T04:14:18.763Z,3.98
2024-02-13T04:16:44.805Z,3.89
2024-02-13T04:19:11.649Z,3.87
2024-02-13T04:21:37.631Z,3.83
2024-02-13T04:24:04.291Z,3.81
2024-02-13T04:26:36.553Z,3.78
2024-02-13T04:29:03.306Z,3.81
2024-02-13T04:31:29.290Z,3.77
2024-02-13T04:33:55.517Z,3.82
2024-02-13T04:36:21.587Z,3.82
2024-02-13T04:38:47.667Z,3.79
2024-02-13T04:41:13.677Z,3.78
2024-02-13T04:43:40.801Z,3.78
2024-02-13T04:46:06.752Z,3.77
2024-02-13T04:48:32.939Z,3.77
2024-02-13T04:50:59.055Z,3.76
2024-02-13T04:53:25.072Z,3.71
2024-02-13T04:55:51.012Z,3.73
2024-02-13T04:58:17.097Z,3.72
2024-02-13T05:00:45.054Z,3.73
2024-02-13T05:03:11.068Z,3.72
2024-02-13T05:05:37.251Z,3.70
2024-02-13T05:08:04.119Z,3.71
2024-02-13T05:10:30.185Z,3.67
2024-02-13T05:12:56.251Z,3.69
2024-02-13T05:15:22.175Z,3.65
2024-02-13T05:17:48.993Z,3.62
2024-02-13T05:20:15.224Z,3.61
2024-02-13T05:22:41.331Z,3.63
2024-02-13T05:25:07.563Z,3.62
2024-02-13T05:27:33.859Z,3.55
2024-02-13T05:29:59.857Z,3.57
2024-02-13T05:32:26.047Z,3.59
2024-02-13T05:34:52.773Z,3.57
2024-02-13T05:37:18.712Z,3.59
2024-02-13T05:39:44.623Z,3.59
2024-02-13T05:42:10.715Z,3.57
2024-02-13T05:44:36.660Z,3.54
2024-02-13T05:47:03.344Z,3.53
2024-02-13T05:49:30.757Z,3.51
2024-02-13T05:51:58.485Z,3.50
2024-02-13T05:54:24.562Z,3.52
2024-02-13T05:56:50.690Z,3.54
2024-02-13T05:59:16.677Z,3.53
2024-02-13T06:01:42.821Z,3.55
2024-02-13T06:04:08.911Z,3.56
2024-02-13T06:06:35.010Z,3.53
2024-02-13T06:09:01.654Z,3.54
2024-02-13T06:11:30.245Z,3.56
2024-02-13T06:13:58.256Z,3.54
2024-02-13T06:16:24.309Z,3.57
2024-02-13T06:18:50.398Z,3.57
2024-02-13T06:21:16.396Z,3.57
2024-02-13T06:23:42.662Z,3.58
2024-02-13T06:26:09.407Z,3.62
2024-02-13T06:28:35.502Z,3.57
2024-02-13T06:31:02.240Z,3.60
2024-02-13T06:33:28.366Z,3.61
2024-02-13T06:35:54.500Z,3.63
2024-02-13T06:38:20.486Z,3.65
2024-02-13T06:40:46.474Z,3.68
2024-02-13T06:43:13.121Z,3.69
2024-02-13T06:45:39.166Z,3.70
2024-02-13T06:48:06.130Z,3.73
2024-02-13T06:50:32.237Z,3.74
2024-02-13T06:52:58.211Z,3.74
2024-02-13T06:55:24.389Z,3.75
2024-02-13T06:57:50.439Z,3.78
2024-02-13T07:00:18.409Z,3.77
2024-02-13T07:02:44.582Z,3.80
2024-02-13T07:05:10.709Z,3.78
2024-02-13T07:07:45.582Z,3.80
2024-02-13T07:10:14.629Z,3.83
2024-02-13T07:12:40.707Z,3.84
2024-02-13T07:15:08.174Z,3.87
2024-02-13T07:17:45.222Z,3.92
2024-02-13T07:20:19.479Z,3.95
2024-02-13T07:22:45.578Z,3.99
2024-02-13T07:25:11.575Z,4.01
2024-02-13T07:27:37.839Z,4.03
2024-02-13T07:30:05.330Z,4.08
2024-02-13T07:32:31.406Z,4.12
2024-02-13T07:34:58.158Z,4.18
2024-02-13T07:37:24.076Z,4.27
2024-02-13T07:39:50.135Z,4.39
2024-02-13T07:42:16.113Z,4.54
2024-02-13T07:44:42.089Z,4.66
2024-02-13T07:47:08.063Z,5.39
2024-02-13T07:49:34.149Z,5.26
2024-02-13T07:52:00.943Z,4.88
2024-02-13T07:54:26.976Z,4.78
2024-02-13T07:56:53.028Z,4.76
2024-02-13T07:59:19.091Z,5.24
2024-02-13T08:01:45.018Z,4.98
2024-02-13T08:04:11.033Z,5.39
2024-02-13T08:06:37.190Z,5.32
2024-02-13T08:09:03.788Z,5.48
2024-02-13T08:11:29.749Z,6.00
2024-02-13T08:13:55.792Z,7.30
2024-02-13T08:16:21.681Z,7.44
2024-02-13T08:18:47.723Z,7.21
2024-02-13T08:21:13.773Z,8.42
2024-02-13T08:23:39.883Z,8.30
2024-02-13T08:26:06.473Z,8.06
2024-02-13T08:28:32.520Z,7.85
2024-02-13T08:30:58.471Z,8.55
2024-02-13T08:33:24.699Z,7.77
2024-02-13T08:35:50.830Z,6.93
2024-02-13T08:38:16.912Z,6.75
2024-02-13T08:40:43.065Z,6.38
2024-02-13T08:43:09.710Z,6.17
2024-02-13T08:45:35.600Z,5.99
2024-02-13T08:48:01.745Z,6.47
2024-02-13T08:50:27.977Z,6.98
2024-02-13T08:52:54.084Z,6.79
2024-02-13T08:55:20.001Z,6.66
2024-02-13T08:57:46.155Z,6.52
2024-02-13T09:00:13.829Z,6.41
2024-02-13T09:02:39.875Z,6.34
2024-02-13T09:05:06.191Z,6.31
2024-02-13T09:07:32.197Z,6.38
2024-02-13T09:09:58.150Z,6.43
2024-02-13T09:12:24.382Z,6.63
2024-02-13T09:14:50.328Z,6.72
2024-02-13T09:17:17.016Z,6.77
2024-02-13T09:19:43.190Z,7.32
2024-02-13T09:22:09.170Z,10.57
2024-02-13T09:24:35.134Z,12.17
2024-02-13T09:27:01.874Z,13.93
2024-02-13T09:29:27.927Z,13.70
2024-02-13T09:31:53.913Z,13.91
2024-02-13T09:34:20.668Z,15.26
2024-02-13T09:36:46.724Z,16.14
2024-02-13T09:39:12.840Z,16.77
2024-02-13T09:41:39.077Z,17.09
2024-02-13T09:44:05.010Z,16.03
2024-02-13T09:46:31.728Z,15.78
2024-02-13T09:48:59.543Z,14.67
2024-02-13T09:51:28.636Z,13.72
2024-02-13T09:53:55.374Z,14.40
2024-02-13T09:56:21.656Z,13.55
2024-02-13T09:58:48.606Z,14.72
2024-02-13T10:01:14.854Z,16.07
2024-02-13T10:03:40.862Z,17.06
2024-02-13T10:06:06.907Z,17.56
2024-02-13T10:08:33.931Z,18.20
2024-02-13T10:11:01.062Z,18.55
2024-02-13T10:13:30.606Z,18.66
2024-02-13T10:15:59.348Z,18.07
2024-02-13T10:18:25.617Z,17.89
2024-02-13T10:20:51.760Z,16.99
2024-02-13T10:23:20.488Z,16.74
2024-02-13T10:25:47.274Z,16.24
2024-02-13T10:28:16.104Z,15.61
2024-02-13T10:30:49.198Z,15.22
2024-02-13T10:33:15.373Z,14.48
2024-02-13T10:35:41.907Z,13.93
2024-02-13T10:38:10.439Z,13.46
2024-02-13T10:40:37.190Z,13.02
2024-02-13T10:43:06.171Z,13.03
2024-02-13T10:45:36.424Z,12.86
2024-02-13T10:48:09.483Z,12.66
2024-02-13T10:50:36.751Z,12.35
2024-02-13T10:53:03.202Z,12.03
2024-02-13T10:55:31.996Z,11.80
2024-02-13T10:57:58.474Z,11.55
2024-02-13T11:00:26.187Z,11.49
2024-02-13T11:02:52.659Z,11.42
2024-02-13T11:05:19.502Z,11.34
2024-02-13T11:07:46.157Z,11.34
2024-02-13T11:10:12.458Z,11.41
2024-02-13T11:12:38.881Z,11.49
2024-02-13T11:15:10.056Z,11.65
2024-02-13T11:17:44.264Z,11.72
2024-02-13T11:20:13.140Z,11.61
2024-02-13T11:22:39.196Z,11.53
2024-02-13T11:25:06.326Z,11.49
2024-02-13T11:27:32.515Z,11.54
2024-02-13T11:30:01.034Z,11.60
2024-02-13T11:32:32.510Z,11.69
2024-02-13T11:34:59.582Z,11.73
2024-02-13T11:37:26.547Z,11.73
2024-02-13T11:39:52.634Z,11.66
2024-02-13T11:42:18.774Z,11.61
2024-02-13T11:44:45.355Z,11.59
2024-02-13T11:47:11.381Z,11.55
2024-02-13T11:49:37.519Z,11.55
2024-02-13T11:52:04.553Z,11.55
2024-02-13T11:54:31.875Z,11.68
2024-02-13T11:56:58.174Z,11.81
2024-02-13T11:59:24.402Z,11.90
2024-02-13T12:01:52.433Z,11.98
2024-02-13T12:04:18.531Z,11.86
2024-02-13T12:06:45.162Z,11.79
2024-02-13T12:09:13.864Z,11.70
2024-02-13T12:11:40.083Z,11.77
2024-02-13T12:14:07.399Z,11.82
2024-02-13T12:16:33.619Z,11.90
2024-02-13T12:18:59.764Z,11.91
2024-02-13T12:21:28.879Z,11.92
2024-02-13T12:23:55.005Z,11.82
2024-02-13T12:26:21.849Z,11.76
2024-02-13T12:28:53.665Z,11.65
2024-02-13T12:31:20.699Z,11.52
2024-02-13T12:33:46.815Z,11.49
2024-02-13T12:36:13.129Z,11.49
2024-02-13T12:38:39.143Z,11.51
2024-02-13T12:41:05.434Z,11.66
2024-02-13T12:43:32.097Z,11.76
2024-02-13T12:45:58.320Z,11.86
2024-02-13T12:48:24.523Z,11.92
2024-02-13T12:50:50.699Z,12.01
2024-02-13T12:53:16.766Z,12.09
2024-02-13T12:55:43.691Z,12.15
2024-02-13T12:58:10.335Z,12.19
2024-02-13T13:00:37.005Z,12.13
2024-02-13T13:03:03.215Z,12.09
2024-02-13T13:05:29.409Z,12.07
2024-02-13T13:07:55.382Z,12.11
2024-02-13T13:10:21.399Z,12.03
2024-02-13T13:12:47.458Z,12.07
2024-02-13T13:15:19.551Z,12.10
2024-02-13T13:17:49.880Z,12.18
2024-02-13T13:20:16.425Z,12.22
2024-02-13T13:22:42.462Z,12.37
2024-02-13T13:25:09.142Z,12.41
2024-02-13T13:27:35.127Z,12.47
2024-02-13T13:30:01.088Z,12.54
2024-02-13T13:32:27.418Z,12.69
2024-02-13T13:34:54.038Z,12.83
2024-02-13T13:37:19.996Z,12.96
2024-02-13T13:39:45.953Z,13.00
2024-02-13T13:42:11.976Z,13.16
2024-02-13T13:44:38.142Z,13.28
2024-02-13T13:47:04.356Z,13.27
2024-02-13T13:49:30.359Z,13.17
2024-02-13T13:51:57.064Z,13.18
2024-02-13T13:54:23.103Z,13.24
2024-02-13T13:56:49.148Z,13.19
2024-02-13T13:59:15.146Z,13.12
2024-02-13T14:01:41.310Z,13.05
2024-02-13T14:04:07.317Z,13.03
2024-02-13T14:06:33.519Z,12.89
2024-02-13T14:09:00.410Z,12.88
2024-02-13T14:11:26.749Z,12.76
2024-02-13T14:13:52.870Z,12.67
2024-02-13T14:16:19.741Z,12.59
2024-02-13T14:18:45.799Z,12.51
2024-02-13T14:21:11.913Z,12.32
2024-02-13T14:23:38.025Z,12.17
2024-02-13T14:26:04.815Z,12.03
2024-02-13T14:28:30.756Z,11.96
2024-02-13T14:30:56.983Z,11.95
2024-02-13T14:33:23.145Z,12.10
2024-02-13T14:35:49.301Z,12.20
2024-02-13T14:38:15.881Z,12.25
2024-02-13T14:40:41.878Z,12.18
2024-02-13T14:43:08.894Z,12.07
2024-02-13T14:45:35.134Z,12.05
2024-02-13T14:48:01.147Z,11.99
2024-02-13T14:50:27.318Z,11.93
2024-02-13T14:52:53.509Z,11.95
2024-02-13T14:55:19.580Z,11.91
2024-02-13T14:57:55.820Z,11.80
2024-02-13T15:00:27.472Z,11.79
2024-02-13T15:02:53.453Z,11.77
2024-02-13T15:05:19.519Z,11.75
2024-02-13T15:07:45.607Z,11.63
2024-02-13T15:10:11.590Z,11.57
2024-02-13T15:12:37.659Z,11.58
2024-02-13T15:15:04.414Z,11.51
2024-02-13T15:17:31.134Z,11.39
2024-02-13T15:19:57.299Z,11.23
2024-02-13T15:22:23.328Z,11.13
2024-02-13T15:24:49.362Z,10.97
2024-02-13T15:27:15.284Z,10.88
2024-02-13T15:29:41.403Z,10.79
2024-02-13T15:32:07.309Z,10.77
2024-02-13T15:34:33.970Z,10.71
2024-02-13T15:37:02.258Z,10.68
2024-02-13T15:39:29.124Z,10.64
2024-02-13T15:41:55.104Z,10.65
2024-02-13T15:44:21.262Z,10.63
2024-02-13T15:46:47.190Z,10.58
2024-02-13T15:49:13.516Z,10.53
2024-02-13T15:51:40.203Z,10.55
2024-02-13T15:54:06.235Z,10.49
2024-02-13T15:56:32.214Z,10.44
2024-02-13T15:58:58.286Z,10.43
2024-02-13T16:01:25.250Z,10.37
2024-02-13T16:03:52.197Z,10.35
2024-02-13T16:06:18.198Z,10.34
2024-02-13T16:08:44.945Z,10.29
2024-02-13T16:11:10.947Z,10.28
2024-02-13T16:13:36.960Z,10.24
2024-02-13T16:16:03.454Z,10.24
2024-02-13T16:18:29.701Z,10.22
2024-02-13T16:20:55.884Z,10.19
2024-02-13T16:23:21.901Z,10.16
2024-02-13T16:25:48.515Z,10.14
2024-02-13T16:28:14.531Z,10.15
2024-02-13T16:30:40.456Z,10.15
2024-02-13T16:33:06.624Z,10.14
2024-02-13T16:35:32.780Z,10.12
2024-02-13T16:37:58.919Z,10.09
2024-02-13T16:40:27.397Z,10.10
2024-02-13T16:42:56.901Z,10.08
2024-02-13T16:45:24.727Z,10.08
2024-02-13T16:47:50.805Z,10.06
2024-02-13T16:50:16.938Z,10.02
2024-02-13T16:52:42.927Z,10.00
2024-02-13T16:55:09.328Z,9.98
2024-02-13T16:57:35.571Z,9.95
2024-02-13T17:00:02.282Z,9.95
2024-02-13T17:02:28.381Z,9.95
2024-02-13T17:04:54.518Z,9.94
2024-02-13T17:07:20.578Z,9.92
2024-02-13T17:09:46.717Z,9.91
2024-02-13T17:12:12.867Z,9.92
2024-02-13T17:14:38.995Z,9.92
2024-02-13T17:17:05.550Z,9.88
2024-02-13T17:19:31.607Z,9.88
2024-02-13T17:21:57.548Z,9.87
2024-02-13T17:24:23.514Z,9.85
2024-02-13T17:26:49.501Z,9.85
2024-02-13T17:29:15.515Z,9.85
2024-02-13T17:31:41.466Z,9.82
2024-02-13T17:34:08.399Z,9.82
2024-02-13T17:36:34.603Z,9.80
2024-02-13T17:39:00.668Z,9.78
2024-02-13T17:41:26.690Z,9.78
2024-02-13T17:43:53.160Z,9.79
2024-02-13T17:46:19.936Z,9.79
2024-02-13T17:48:46.372Z,9.80
2024-02-13T17:51:13.125Z,9.81
2024-02-13T17:53:39.189Z,9.77
2024-02-13T17:56:06.479Z,9.78
2024-02-13T17:58:32.469Z,9.76
2024-02-13T18:00:58.483Z,9.74
2024-02-13T18:03:24.684Z,9.71
2024-02-13T18:05:51.152Z,9.70
2024-02-13T18:08:17.881Z,9.72
2024-02-13T18:10:44.155Z,9.69
2024-02-13T18:13:13.507Z,9.68
2024-02-13T18:15:42.048Z,9.67
2024-02-13T18:18:08.170Z,9.67
2024-02-13T18:20:34.733Z,9.67
2024-02-13T18:23:02.363Z,9.66
2024-02-13T18:25:28.991Z,9.65
2024-02-13T18:27:54.937Z,9.64
2024-02-13T18:30:20.934Z,9.60
2024-02-13T18:32:47.076Z,9.60
2024-02-13T18:35:13.267Z,9.62
2024-02-13T18:37:39.744Z,9.61
2024-02-13T18:40:06.653Z,9.59
2024-02-13T18:42:33.269Z,9.59
2024-02-13T18:44:59.259Z,9.57
2024-02-13T18:47:25.487Z,9.57
2024-02-13T18:49:51.569Z,9.58
2024-02-13T18:52:17.629Z,9.57
2024-02-13T18:54:44.083Z,9.58
2024-02-13T18:57:10.075Z,9.57
2024-02-13T18:59:36.812Z,9.57
2024-02-13T19:02:03.289Z,9.56
2024-02-13T19:04:29.462Z,9.54
2024-02-13T19:06:56.084Z,9.52
2024-02-13T19:09:22.280Z,9.51
2024-02-13T19:11:48.456Z,9.45
2024-02-13T19:14:14.343Z,9.45
2024-02-13T19:16:41.663Z,9.49
2024-02-13T19:19:08.655Z,9.46
2024-02-13T19:21:34.711Z,9.50
2024-02-13T19:24:00.641Z,9.49
2024-02-13T19:26:26.557Z,9.46
2024-02-13T19:28:52.878Z,9.44
2024-02-13T19:31:18.820Z,9.40
2024-02-13T19:33:46.100Z,9.41
2024-02-13T19:36:12.133Z,9.41
2024-02-13T19:38:38.187Z,9.40
2024-02-13T19:41:04.355Z,9.39
2024-02-13T19:43:30.252Z,9.37
2024-02-13T19:45:56.304Z,9.39
2024-02-13T19:48:22.440Z,9.41
2024-02-13T19:50:51.394Z,9.39
2024-02-13T19:53:17.532Z,9.41
2024-02-13T19:55:43.518Z,9.40
2024-02-13T19:58:09.467Z,9.37
2024-02-13T20:00:35.501Z,9.33
2024-02-13T20:03:01.954Z,9.32
2024-02-13T20:05:28.049Z,9.32
2024-02-13T20:07:54.824Z,9.35
2024-02-13T20:10:21.012Z,9.37
2024-02-13T20:12:47.011Z,9.40
2024-02-13T20:15:13.147Z,9.41
2024-02-13T20:17:39.237Z,9.43
2024-02-13T20:20:06.931Z,9.46
2024-02-13T20:22:33.064Z,9.47
2024-02-13T20:24:59.658Z,9.46
2024-02-13T20:27:25.634Z,9.50
2024-02-13T20:29:51.702Z,9.51
2024-02-13T20:32:17.845Z,9.51
2024-02-13T20:34:43.972Z,9.48
2024-02-13T20:37:10.139Z,9.50
2024-02-13T20:39:36.090Z,9.50
2024-02-13T20:42:03.061Z,9.53
2024-02-13T20:44:29.714Z,9.55
2024-02-13T20:46:55.648Z,9.57
2024-02-13T20:49:21.639Z,9.56
2024-02-13T20:51:47.656Z,9.57
2024-02-13T20:54:13.671Z,9.61
2024-02-13T20:56:41.001Z,9.61
2024-02-13T20:59:07.607Z,9.63
2024-02-13T21:01:33.953Z,9.63
2024-02-13T21:03:59.854Z,9.63
2024-02-13T21:06:26.029Z,9.65
2024-02-13T21:08:52.438Z,9.63
2024-02-13T21:11:19.094Z,9.64
2024-02-13T21:13:45.403Z,9.57
2024-02-13T21:16:12.292Z,9.63
2024-02-13T21:18:38.354Z,9.63
2024-02-13T21:21:04.956Z,9.63
2024-02-13T21:23:30.956Z,9.65
2024-02-13T21:25:57.215Z,9.68
2024-02-13T21:28:23.584Z,9.72
2024-02-13T21:30:49.668Z,9.71
2024-02-13T21:33:16.303Z,9.74
2024-02-13T21:35:42.437Z,9.78
2024-02-13T21:38:09.746Z,9.79
2024-02-13T21:40:37.709Z,9.80
2024-02-13T21:43:04.001Z,9.80
2024-02-13T21:45:29.953Z,9.77
2024-02-13T21:47:56.008Z,9.79
2024-02-13T21:50:23.012Z,9.78
2024-02-13T21:52:48.934Z,9.78
2024-02-13T21:55:14.899Z,9.77
2024-02-13T21:57:41.101Z,9.76
2024-02-13T22:00:09.466Z,9.74
2024-02-13T22:02:35.559Z,9.71
2024-02-13T22:05:01.584Z,9.71
2024-02-13T22:07:28.309Z,9.70
2024-02-13T22:09:54.602Z,9.69
2024-02-13T22:12:20.505Z,9.68
2024-02-13T22:14:46.557Z,9.67
2024-02-13T22:17:12.660Z,9.66
2024-02-13T22:19:38.748Z,9.65
2024-02-13T22:22:04.831Z,9.65
2024-02-13T22:24:32.289Z,9.65
2024-02-13T22:26:58.337Z,9.63
2024-02-13T22:29:26.824Z,9.65
2024-02-13T22:31:53.081Z,9.66
2024-02-13T22:34:19.178Z,9.66
2024-02-13T22:36:45.194Z,9.64
2024-02-13T22:39:11.225Z,9.61
2024-02-13T22:41:37.993Z,9.56
2024-02-13T22:44:04.538Z,9.47
2024-02-13T22:46:30.625Z,9.45
2024-02-13T22:48:56.744Z,9.43
2024-02-13T22:51:23.067Z,9.40
2024-02-13T22:53:49.214Z,9.37
2024-02-13T22:56:15.659Z,9.34
2024-02-13T22:58:42.414Z,9.31
2024-02-13T23:01:08.309Z,9.26
2024-02-13T23:03:34.372Z,9.23
2024-02-13T23:06:00.741Z,9.20
2024-02-13T23:08:27.502Z,9.19
2024-02-13T23:10:54.105Z,9.20
2024-02-13T23:13:20.227Z,9.17
2024-02-13T23:15:47.291Z,9.11
2024-02-13T23:18:13.831Z,9.08
2024-02-13T23:20:40.218Z,9.05
2024-02-13T23:23:06.668Z,9.02
2024-02-13T23:25:33.887Z,9.02
2024-02-13T23:27:59.858Z,9.02
2024-02-13T23:30:26.782Z,8.98
2024-02-13T23:32:53.467Z,8.97
2024-02-13T23:35:19.442Z,8.97
2024-02-13T23:37:45.559Z,8.99
2024-02-13T23:40:13.515Z,8.99
2024-02-13T23:42:39.757Z,9.02
2024-02-13T23:45:06.381Z,9.02
2024-02-13T23:47:32.486Z,9.00
2024-02-13T23:49:59.204Z,8.99
2024-02-13T23:52:25.223Z,8.99
2024-02-13T23:54:51.189Z,8.97
2024-02-13T23:57:17.310Z,8.95
2024-02-13T23:59:43.310Z,8.97
